Time;durP1;ratioP1;P1;durP2;ratioP2;P2;SDS_P1;SDS_P2;PMS_P1;PMS_P2;Temp;Humidity;BMP_temperature;BMP_pressure;BME280_temperature;BME280_humidity;BME280_pressure;Samples;Min_cycle;Max_cycle;Signal;HPM_P1;HPM_P2
2021/08/31 00:00:57;;;;;;;;;;;17.90;96.00;;;;;;4344461;33;43547;-79
2021/08/31 00:03:24;;;;;;;;;;;17.90;96.00;;;;;;4345053;33;42577;-79
2021/08/31 00:05:51;;;;;;;;;;;17.90;96.00;;;;;;4344085;33;43832;-79
2021/08/31 00:08:22;;;;;;;;;;;17.90;96.00;;;;;;4344491;33;44219;-79
2021/08/31 00:10:49;;;;;;;;;;;17.90;96.00;;;;;;4344391;33;44073;-79
2021/08/31 00:13:17;;;;;;;;;;;17.90;96.00;;;;;;4343791;33;43909;-79
2021/08/31 00:15:44;;;;;;;;;;;17.90;96.00;;;;;;4344550;33;43222;-79
2021/08/31 00:18:11;;;;;;;;;;;17.90;96.00;;;;;;4344928;33;42826;-79
2021/08/31 00:20:41;;;;;;;;;;;17.90;96.00;;;;;;4344427;33;43253;-79
2021/08/31 00:23:09;;;;;;;;;;;17.90;96.00;;;;;;4344156;33;43033;-79
2021/08/31 00:25:36;;;;;;;;;;;17.90;96.10;;;;;;4344183;33;43260;-79
2021/08/31 00:28:06;;;;;;;;;;;17.80;96.00;;;;;;4343762;33;42819;-80
2021/08/31 00:30:33;;;;;;;;;;;17.80;96.10;;;;;;4345553;33;45491;-79
2021/08/31 00:33:02;;;;;;;;;;;17.90;96.10;;;;;;4344192;33;43332;-79
2021/08/31 00:35:32;;;;;;;;;;;17.80;96.10;;;;;;4344333;33;43290;-79
2021/08/31 00:38:00;;;;;;;;;;;17.80;96.10;;;;;;4347514;33;43466;-79
2021/08/31 00:40:27;;;;;;;;;;;17.80;96.10;;;;;;4347843;33;44184;-79
2021/08/31 00:42:57;;;;;;;;;;;17.80;96.10;;;;;;4347001;33;44210;-79
2021/08/31 00:45:24;;;;;;;;;;;17.90;96.10;;;;;;4347944;33;43049;-79
2021/08/31 00:47:54;;;;;;;;;;;17.80;96.10;;;;;;4346959;33;42916;-79
2021/08/31 00:50:21;;;;;;;;;;;17.80;96.20;;;;;;4347642;33;44812;-79
2021/08/31 00:52:49;;;;;;;;;;;17.80;96.10;;;;;;4348236;33;43253;-79
2021/08/31 00:55:19;;;;;;;;;;;17.80;96.10;;;;;;4347138;33;44195;-79
2021/08/31 00:57:46;;;;;;;;;;;17.80;96.10;;;;;;4347860;33;43862;-79
2021/08/31 01:00:14;;;;;;;;;;;17.80;96.10;;;;;;4347817;33;44171;-79
2021/08/31 01:02:42;;;;;;;;;;;17.80;96.10;;;;;;4347492;32;44271;-78
2021/08/31 01:05:13;;;;;;;;;;;17.80;96.20;;;;;;4347466;33;45300;-79
2021/08/31 01:07:43;;;;;;;;;;;17.80;96.20;;;;;;4346390;33;43525;-80
2021/08/31 01:10:13;;;;;;;;;;;17.80;96.20;;;;;;4346376;33;42710;-79
2021/08/31 01:12:40;;;;;;;;;;;17.80;96.20;;;;;;4347952;33;45813;-79
2021/08/31 01:15:08;;;;;;;;;;;17.80;96.20;;;;;;4347391;32;45027;-81
2021/08/31 01:17:35;;;;;;;;;;;17.80;96.20;;;;;;4347779;32;45598;-79
2021/08/31 01:20:03;;;;;;;;;;;17.80;96.20;;;;;;4347029;33;20002;-79
2021/08/31 01:22:33;;;;;;;;;;;17.80;96.20;;;;;;4346348;33;42933;-78
2021/08/31 01:25:00;;;;;;;;;;;17.80;96.20;;;;;;4347429;33;44090;-79
2021/08/31 01:27:28;;;;;;;;;;;17.80;96.50;;;;;;4346126;33;45800;-79
2021/08/31 01:29:55;;;;;;;;;;;17.80;96.20;;;;;;4347482;33;43890;-79
2021/08/31 01:32:25;;;;;;;;;;;17.80;96.20;;;;;;4347103;33;44218;-79
2021/08/31 01:34:55;;;;;;;;;;;17.80;96.20;;;;;;4346486;33;43847;-78
2021/08/31 01:37:25;;;;;;;;;;;17.80;96.20;;;;;;4347039;33;44282;-79
2021/08/31 01:39:55;;;;;;;;;;;17.80;96.20;;;;;;4347005;33;45561;-80
2021/08/31 01:42:32;;;;;;;;;;;17.70;96.20;;;;;;4346211;33;43453;-80
2021/08/31 01:44:59;;;;;;;;;;;17.70;96.20;;;;;;4346299;33;44156;-79
2021/08/31 01:47:26;;;;;;;;;;;17.70;96.20;;;;;;4345726;33;44037;-79
2021/08/31 01:49:53;;;;;;;;;;;17.70;96.20;;;;;;4345274;33;43946;-79
2021/08/31 01:52:20;;;;;;;;;;;17.70;96.20;;;;;;4345938;33;43900;-79
2021/08/31 01:54:50;;;;;;;;;;;17.80;96.20;;;;;;4346866;33;43248;-79
2021/08/31 01:57:17;;;;;;;;;;;17.70;96.20;;;;;;4346033;33;45201;-79
2021/08/31 01:59:44;;;;;;;;;;;17.70;96.20;;;;;;4346109;33;43674;-79
2021/08/31 02:02:14;;;;;;;;;;;17.70;96.20;;;;;;4346645;33;43778;-79
2021/08/31 02:04:44;;;;;;;;;;;17.70;96.20;;;;;;4345858;33;43083;-79
2021/08/31 02:07:11;;;;;;;;;;;17.70;96.20;;;;;;4346774;33;42543;-80
2021/08/31 02:09:38;;;;;;;;;;;17.70;96.20;;;;;;4346054;33;43183;-79
2021/08/31 02:12:08;;;;;;;;;;;17.70;96.20;;;;;;4345506;33;43000;-79
2021/08/31 02:14:35;;;;;;;;;;;17.70;96.20;;;;;;4346931;33;44248;-79
2021/08/31 02:17:03;;;;;;;;;;;17.70;96.20;;;;;;4346534;33;43096;-79
2021/08/31 02:19:30;;;;;;;;;;;17.70;96.20;;;;;;4345673;33;42581;-79
2021/08/31 02:21:57;;;;;;;;;;;17.70;96.20;;;;;;4345884;33;43274;-79
2021/08/31 02:24:24;;;;;;;;;;;17.70;96.20;;;;;;4346904;33;42970;-79
2021/08/31 02:26:51;;;;;;;;;;;17.70;96.20;;;;;;4345218;33;43337;-80
2021/08/31 02:29:19;;;;;;;;;;;17.70;96.20;;;;;;4346433;33;44240;-79
2021/08/31 02:31:46;;;;;;;;;;;17.70;96.20;;;;;;4345539;33;43957;-79
2021/08/31 02:34:13;;;;;;;;;;;17.70;96.20;;;;;;4345539;33;43260;-79
2021/08/31 02:36:41;;;;;;;;;;;17.70;96.20;;;;;;4346690;33;43254;-79
2021/08/31 02:39:08;;;;;;;;;;;17.60;96.20;;;;;;4346773;33;44183;-79
2021/08/31 02:41:35;;;;;;;;;;;17.70;96.20;;;;;;4346204;33;42218;-79
2021/08/31 02:44:02;;;;;;;;;;;17.70;96.20;;;;;;4346223;33;43473;-79
2021/08/31 02:46:29;;;;;;;;;;;17.60;96.20;;;;;;4345142;33;43519;-79
2021/08/31 02:48:56;;;;;;;;;;;17.60;96.20;;;;;;4346289;33;43580;-79
2021/08/31 02:51:23;;;;;;;;;;;17.60;96.20;;;;;;4346456;33;42261;-79
2021/08/31 02:53:50;;;;;;;;;;;17.60;96.20;;;;;;4346004;33;44250;-79
2021/08/31 02:56:17;;;;;;;;;;;17.60;96.20;;;;;;4346493;33;43164;-79
2021/08/31 02:58:44;;;;;;;;;;;17.60;96.20;;;;;;4346396;33;43370;-79
2021/08/31 03:03:57;;;;;;;;;;;17.60;96.20;;;;;;4345864;33;43260;-79
2021/08/31 03:06:25;;;;;;;;;;;17.60;96.20;;;;;;4345800;33;43787;-79
2021/08/31 03:08:52;;;;;;;;;;;17.60;96.20;;;;;;4345161;33;43031;-79
2021/08/31 03:11:19;;;;;;;;;;;17.60;96.20;;;;;;4345750;33;42993;-79
2021/08/31 03:13:46;;;;;;;;;;;17.60;96.20;;;;;;4345137;33;44456;-79
2021/08/31 03:16:13;;;;;;;;;;;17.60;96.20;;;;;;4345096;33;43933;-79
2021/08/31 03:18:41;;;;;;;;;;;17.60;96.20;;;;;;4346058;33;44221;-80
2021/08/31 03:21:08;;;;;;;;;;;17.60;96.20;;;;;;4345750;33;43293;-80
2021/08/31 03:23:38;;;;;;;;;;;17.60;96.20;;;;;;4345588;33;43314;-78
2021/08/31 03:26:05;;;;;;;;;;;17.60;96.20;;;;;;4345677;33;43764;-79
2021/08/31 03:28:32;;;;;;;;;;;17.60;96.20;;;;;;4344647;33;43931;-78
2021/08/31 03:30:59;;;;;;;;;;;17.60;96.20;;;;;;4344406;33;43131;-78
2021/08/31 03:33:26;;;;;;;;;;;17.60;96.10;;;;;;4345389;33;42501;-78
2021/08/31 03:35:53;;;;;;;;;;;17.60;96.20;;;;;;4345349;33;43470;-78
2021/08/31 03:38:20;;;;;;;;;;;17.60;96.20;;;;;;4345006;33;43461;-78
2021/08/31 03:40:47;;;;;;;;;;;17.60;96.10;;;;;;4345514;33;43461;-79
2021/08/31 03:43:14;;;;;;;;;;;17.50;96.10;;;;;;4345591;33;42780;-79
2021/08/31 03:45:42;;;;;;;;;;;17.60;96.10;;;;;;4345684;33;42858;-78
2021/08/31 03:48:09;;;;;;;;;;;17.60;96.10;;;;;;4344698;33;43202;-78
2021/08/31 03:50:36;;;;;;;;;;;17.50;96.10;;;;;;4344585;33;42635;-78
2021/08/31 03:53:03;;;;;;;;;;;17.50;96.10;;;;;;4345119;33;42647;-78
2021/08/31 03:55:30;;;;;;;;;;;17.50;96.10;;;;;;4344409;33;43548;-78
2021/08/31 03:57:57;;;;;;;;;;;17.60;96.10;;;;;;4345624;33;43225;-78
2021/08/31 04:00:24;;;;;;;;;;;17.60;96.20;;;;;;4345193;33;44152;-78
2021/08/31 04:02:51;;;;;;;;;;;17.60;96.10;;;;;;4343863;33;43873;-78
2021/08/31 04:05:18;;;;;;;;;;;17.50;96.10;;;;;;4345015;33;42328;-80
2021/08/31 04:07:45;;;;;;;;;;;17.50;96.10;;;;;;4345283;33;42807;-79
2021/08/31 04:10:13;;;;;;;;;;;17.60;96.10;;;;;;4345028;33;43416;-79
2021/08/31 04:12:40;;;;;;;;;;;17.50;96.10;;;;;;4343541;33;43492;-78
2021/08/31 04:15:08;;;;;;;;;;;17.50;96.10;;;;;;4345425;33;43263;-78
2021/08/31 04:17:35;;;;;;;;;;;17.50;96.10;;;;;;4344194;33;44604;-78
2021/08/31 04:20:03;;;;;;;;;;;17.50;96.10;;;;;;4345005;33;44101;-78
2021/08/31 04:22:30;;;;;;;;;;;17.50;96.10;;;;;;4344481;33;43277;-78
2021/08/31 04:25:00;;;;;;;;;;;17.50;96.10;;;;;;4344091;33;44047;-79
2021/08/31 04:27:27;;;;;;;;;;;17.50;96.10;;;;;;4345121;33;44325;-79
2021/08/31 04:29:54;;;;;;;;;;;17.50;96.20;;;;;;4343755;33;44090;-80
2021/08/31 04:32:21;;;;;;;;;;;17.50;96.20;;;;;;4345360;33;43028;-80
2021/08/31 04:34:51;;;;;;;;;;;17.50;96.20;;;;;;4344872;33;42804;-78
2021/08/31 04:37:19;;;;;;;;;;;17.50;96.20;;;;;;4345315;33;44573;-78
2021/08/31 04:39:46;;;;;;;;;;;17.50;96.20;;;;;;4345008;33;42805;-78
2021/08/31 04:42:15;;;;;;;;;;;17.50;96.20;;;;;;4345026;33;44297;-78
2021/08/31 04:44:42;;;;;;;;;;;17.50;96.10;;;;;;4345223;33;43541;-78
2021/08/31 04:47:10;;;;;;;;;;;17.50;96.10;;;;;;4343935;33;46132;-79
2021/08/31 04:49:39;;;;;;;;;;;17.50;96.20;;;;;;4343796;33;43907;-79
2021/08/31 04:52:07;;;;;;;;;;;17.50;96.20;;;;;;4345193;33;43842;-79
2021/08/31 04:54:37;;;;;;;;;;;17.50;96.20;;;;;;4344717;33;44348;-78
2021/08/31 04:57:04;;;;;;;;;;;17.50;96.20;;;;;;4345017;33;44272;-78
2021/08/31 04:59:31;;;;;;;;;;;17.50;96.20;;;;;;4343707;33;44086;-80
2021/08/31 05:01:58;;;;;;;;;;;17.40;96.20;;;;;;4343387;33;44077;-79
2021/08/31 05:04:29;;;;;;;;;;;17.40;96.10;;;;;;4345288;33;44014;-79
2021/08/31 05:06:56;;;;;;;;;;;17.40;96.20;;;;;;4344836;33;43977;-79
2021/08/31 05:09:23;;;;;;;;;;;17.40;96.20;;;;;;4344520;33;44122;-79
2021/08/31 05:11:50;;;;;;;;;;;17.50;96.20;;;;;;4344585;33;43290;-79
2021/08/31 05:14:17;;;;;;;;;;;17.40;96.20;;;;;;4343829;33;43405;-79
2021/08/31 05:16:44;;;;;;;;;;;17.40;96.20;;;;;;4344061;33;44105;-80
2021/08/31 05:19:17;;;;;;;;;;;17.40;96.20;;;;;;4344737;33;44113;-79
2021/08/31 05:21:47;;;;;;;;;;;17.40;96.20;;;;;;4344917;33;20035;-78
2021/08/31 05:24:14;;;;;;;;;;;17.40;96.20;;;;;;4346309;33;43047;-79
2021/08/31 05:26:44;;;;;;;;;;;17.40;96.20;;;;;;4346165;33;44904;-80
2021/08/31 05:29:11;;;;;;;;;;;17.40;96.20;;;;;;4347358;33;45090;-78
2021/08/31 05:31:42;;;;;;;;;;;17.40;96.20;;;;;;4346588;33;43478;-79
2021/08/31 05:34:09;;;;;;;;;;;17.40;96.20;;;;;;4347137;33;42994;-79
2021/08/31 05:36:36;;;;;;;;;;;17.40;96.20;;;;;;4346368;33;42839;-78
2021/08/31 05:39:06;;;;;;;;;;;17.40;96.20;;;;;;4346379;33;44505;-80
2021/08/31 05:41:33;;;;;;;;;;;17.40;96.20;;;;;;4347763;33;43913;-79
2021/08/31 05:44:03;;;;;;;;;;;17.40;96.20;;;;;;4346110;33;44023;-79
2021/08/31 05:46:31;;;;;;;;;;;17.40;96.20;;;;;;4346963;33;44265;-78
2021/08/31 05:49:01;;;;;;;;;;;17.40;96.20;;;;;;4346303;33;44479;-79
2021/08/31 05:51:28;;;;;;;;;;;17.40;96.30;;;;;;4347391;33;44241;-79
2021/08/31 05:53:55;;;;;;;;;;;17.40;96.30;;;;;;4346785;33;43755;-79
2021/08/31 05:56:23;;;;;;;;;;;17.30;96.20;;;;;;4347389;33;45798;-79
2021/08/31 05:58:50;;;;;;;;;;;17.40;96.20;;;;;;4345725;33;44114;-79
2021/08/31 06:01:17;;;;;;;;;;;17.40;96.20;;;;;;4345990;33;43879;-79
2021/08/31 06:03:48;;;;;;;;;;;17.30;96.20;;;;;;4346177;33;44727;-79
2021/08/31 06:06:16;;;;;;;;;;;17.40;96.30;;;;;;4346270;33;43803;-80
2021/08/31 06:08:43;;;;;;;;;;;17.40;96.30;;;;;;4345850;33;43192;-78
2021/08/31 06:11:10;;;;;;;;;;;17.30;96.20;;;;;;4347282;33;44087;-78
2021/08/31 06:13:37;;;;;;;;;;;17.30;96.30;;;;;;4347043;33;45084;-78
2021/08/31 06:16:07;;;;;;;;;;;17.30;96.30;;;;;;4345912;33;45475;-78
2021/08/31 06:18:34;;;;;;;;;;;17.40;96.30;;;;;;4346577;33;42669;-79
2021/08/31 06:21:02;;;;;;;;;;;17.40;96.30;;;;;;4345918;33;43183;-79
2021/08/31 06:23:29;;;;;;;;;;;17.30;96.30;;;;;;4345453;33;42991;-79
2021/08/31 06:25:56;;;;;;;;;;;17.40;96.30;;;;;;4346450;33;44270;-79
2021/08/31 06:28:23;;;;;;;;;;;17.30;96.30;;;;;;4345471;33;43518;-80
2021/08/31 06:30:50;;;;;;;;;;;17.30;96.30;;;;;;4345370;33;42488;-78
2021/08/31 06:33:17;;;;;;;;;;;17.30;96.30;;;;;;4346258;33;43515;-78
2021/08/31 06:35:44;;;;;;;;;;;17.30;96.30;;;;;;4346427;33;43764;-78
2021/08/31 06:38:11;;;;;;;;;;;17.30;96.30;;;;;;4346239;33;44048;-78
2021/08/31 06:40:38;;;;;;;;;;;17.40;96.30;;;;;;4346363;33;44831;-78
2021/08/31 06:43:05;;;;;;;;;;;17.30;96.30;;;;;;4345395;33;44888;-78
2021/08/31 06:45:32;;;;;;;;;;;17.30;96.30;;;;;;4346499;33;43730;-78
2021/08/31 06:47:59;;;;;;;;;;;17.30;96.30;;;;;;4345074;33;43494;-79
2021/08/31 06:50:26;;;;;;;;;;;17.40;96.40;;;;;;4345516;33;42965;-79
2021/08/31 06:52:54;;;;;;;;;;;17.30;96.40;;;;;;4345163;33;43363;-78
2021/08/31 06:55:22;;;;;;;;;;;17.30;96.40;;;;;;4345093;33;42930;-78
2021/08/31 06:57:49;;;;;;;;;;;17.40;96.40;;;;;;4345497;33;44244;-78
2021/08/31 07:00:16;;;;;;;;;;;17.30;96.40;;;;;;4345930;33;42310;-78
2021/08/31 07:02:43;;;;;;;;;;;17.30;96.40;;;;;;4345772;33;44043;-78
2021/08/31 07:05:12;;;;;;;;;;;17.30;96.40;;;;;;4345885;33;44243;-78
2021/08/31 07:07:39;;;;;;;;;;;17.30;96.40;;;;;;4345853;33;42554;-78
2021/08/31 07:10:06;;;;;;;;;;;17.30;96.40;;;;;;4344938;33;43474;-78
2021/08/31 07:12:33;;;;;;;;;;;17.40;96.40;;;;;;4345920;33;42535;-79
2021/08/31 07:15:03;;;;;;;;;;;17.30;96.40;;;;;;4346021;33;45074;-78
2021/08/31 07:17:30;;;;;;;;;;;17.40;96.40;;;;;;4346153;33;43549;-79
2021/08/31 07:19:58;;;;;;;;;;;17.30;96.30;;;;;;4346112;33;44538;-78
2021/08/31 07:22:25;;;;;;;;;;;17.30;96.30;;;;;;4345087;33;43373;-78
2021/08/31 07:24:52;;;;;;;;;;;17.30;96.40;;;;;;4346055;33;44048;-77
2021/08/31 07:27:20;;;;;;;;;;;17.30;96.30;;;;;;4344728;33;43784;-78
2021/08/31 07:29:47;;;;;;;;;;;17.30;96.40;;;;;;4345876;33;42923;-78
2021/08/31 07:32:17;;;;;;;;;;;17.30;96.40;;;;;;4345883;33;44065;-78
2021/08/31 07:34:44;;;;;;;;;;;17.30;96.40;;;;;;4345371;33;44259;-79
2021/08/31 07:37:11;;;;;;;;;;;17.30;96.40;;;;;;4345514;33;42790;-80
2021/08/31 07:39:38;;;;;;;;;;;17.30;96.40;;;;;;4345728;33;42990;-78
2021/08/31 07:42:05;;;;;;;;;;;17.30;96.40;;;;;;4344559;33;44164;-78
2021/08/31 07:44:32;;;;;;;;;;;17.30;96.40;;;;;;4345375;33;43005;-78
2021/08/31 07:46:59;;;;;;;;;;;17.30;96.40;;;;;;4344104;33;43967;-78
2021/08/31 07:49:26;;;;;;;;;;;17.30;96.40;;;;;;4345255;33;44120;-78
2021/08/31 07:51:53;;;;;;;;;;;17.30;96.40;;;;;;4344398;33;43482;-78
2021/08/31 07:54:24;;;;;;;;;;;17.30;96.40;;;;;;4344148;33;42575;-78
2021/08/31 07:56:53;;;;;;;;;;;17.30;96.40;;;;;;4345505;33;42776;-78
2021/08/31 07:59:21;;;;;;;;;;;17.30;96.40;;;;;;4345151;33;42963;-78
2021/08/31 08:01:48;;;;;;;;;;;17.30;96.40;;;;;;4345391;32;45808;-78
2021/08/31 08:04:15;;;;;;;;;;;17.30;96.40;;;;;;4344071;33;43318;-78
2021/08/31 08:06:42;;;;;;;;;;;17.30;96.40;;;;;;4344244;33;43055;-78
2021/08/31 08:09:10;;;;;;;;;;;17.30;96.40;;;;;;4344370;33;42654;-77
2021/08/31 08:11:39;;;;;;;;;;;17.30;96.40;;;;;;4345494;33;44225;-78
2021/08/31 08:14:07;;;;;;;;;;;17.30;96.40;;;;;;4344846;33;44639;-78
2021/08/31 08:16:34;;;;;;;;;;;17.30;96.40;;;;;;4344921;32;44979;-78
2021/08/31 08:19:04;;;;;;;;;;;17.30;96.40;;;;;;4345412;33;44260;-78
2021/08/31 08:21:31;;;;;;;;;;;17.30;96.50;;;;;;4344162;33;43531;-78
2021/08/31 08:23:58;;;;;;;;;;;17.30;96.40;;;;;;4345306;33;42990;-78
2021/08/31 08:26:25;;;;;;;;;;;17.30;96.40;;;;;;4343890;33;44054;-78
2021/08/31 08:28:52;;;;;;;;;;;17.30;96.40;;;;;;4345311;33;43022;-77
2021/08/31 08:31:19;;;;;;;;;;;17.30;96.40;;;;;;4344900;33;43333;-78
2021/08/31 08:33:46;;;;;;;;;;;17.30;96.40;;;;;;4343622;33;45640;-77
2021/08/31 08:36:14;;;;;;;;;;;17.30;96.40;;;;;;4343963;33;43421;-77
2021/08/31 08:38:41;;;;;;;;;;;17.30;96.40;;;;;;4344162;33;43908;-77
2021/08/31 08:41:08;;;;;;;;;;;17.30;96.40;;;;;;4343739;33;43900;-78
2021/08/31 08:43:35;;;;;;;;;;;17.30;96.40;;;;;;4345017;33;44263;-78
2021/08/31 08:46:04;;;;;;;;;;;17.30;96.40;;;;;;4344938;33;43450;-78
2021/08/31 08:48:31;;;;;;;;;;;17.30;96.40;;;;;;4343831;33;43858;-78
2021/08/31 08:50:59;;;;;;;;;;;17.30;96.40;;;;;;4343611;33;43373;-77
2021/08/31 08:53:28;;;;;;;;;;;17.30;96.40;;;;;;4344664;33;44152;-77
2021/08/31 08:55:56;;;;;;;;;;;17.30;96.40;;;;;;4344891;33;45825;-78
2021/08/31 08:58:23;;;;;;;;;;;17.30;96.40;;;;;;4345393;33;44472;-77
2021/08/31 09:00:55;;;;;;;;;;;17.30;96.30;;;;;;4347753;33;42649;-77
2021/08/31 09:03:23;;;;;;;;;;;17.30;96.40;;;;;;4347602;33;43242;-78
2021/08/31 09:06:11;;;;;;;;;;;17.30;96.40;;;;;;4346862;33;44058;-78
2021/08/31 09:08:43;;;;;;;;;;;17.30;96.40;;;;;;4348075;33;43961;-78
2021/08/31 09:11:17;;;;;;;;;;;17.30;96.40;;;;;;4346765;33;43367;-78
2021/08/31 09:13:45;;;;;;;;;;;17.30;96.40;;;;;;4348257;33;43469;-77
2021/08/31 09:16:28;;;;;;;;;;;17.30;96.40;;;;;;4346784;33;44024;-77
2021/08/31 09:18:57;;;;;;;;;;;17.30;96.40;;;;;;4346340;33;42613;-77
2021/08/31 09:21:31;;;;;;;;;;;17.30;96.40;;;;;;4347417;33;43490;-77
2021/08/31 09:23:58;;;;;;;;;;;17.30;96.40;;;;;;4348518;33;20016;-77
2021/08/31 09:26:42;;;;;;;;;;;17.30;96.40;;;;;;4347151;33;46062;-77
2021/08/31 09:29:14;;;;;;;;;;;17.30;96.40;;;;;;4346547;33;45492;-77
2021/08/31 09:31:45;;;;;;;;;;;17.30;96.40;;;;;;4347265;33;43321;-77
2021/08/31 09:34:31;;;;;;;;;;;17.30;96.40;;;;;;4347360;33;44230;-77
2021/08/31 09:37:17;;;;;;;;;;;17.30;96.40;;;;;;4347230;33;43867;-77
2021/08/31 09:39:44;;;;;;;;;;;17.30;96.50;;;;;;4347613;33;43861;-78
2021/08/31 09:42:11;;;;;;;;;;;17.30;96.50;;;;;;4346486;33;43544;-76
2021/08/31 09:44:38;;;;;;;;;;;17.30;96.50;;;;;;4347427;33;43822;-77
2021/08/31 09:47:05;;;;;;;;;;;17.30;96.50;;;;;;4347021;33;44055;-77
2021/08/31 09:49:32;;;;;;;;;;;17.30;96.50;;;;;;4345882;33;42121;-76
2021/08/31 09:51:59;;;;;;;;;;;17.40;96.50;;;;;;4346928;33;43761;-76
2021/08/31 09:54:26;;;;;;;;;;;17.30;96.50;;;;;;4347217;33;20001;-76
2021/08/31 09:56:54;;;;;;;;;;;17.30;96.50;;;;;;4346892;33;42816;-76
2021/08/31 09:59:33;;;;;;;;;;;17.30;96.40;;;;;;4346406;33;43249;-76
2021/08/31 10:02:00;;;;;;;;;;;17.40;96.50;;;;;;4345597;33;44517;-77
2021/08/31 10:04:28;;;;;;;;;;;17.30;96.40;;;;;;4345764;33;42883;-76
2021/08/31 10:06:55;;;;;;;;;;;17.40;96.50;;;;;;4346772;33;43234;-77
2021/08/31 10:09:22;;;;;;;;;;;17.40;96.50;;;;;;4346301;33;42434;-77
2021/08/31 10:11:49;;;;;;;;;;;17.40;96.50;;;;;;4346839;33;43123;-76
2021/08/31 10:14:17;;;;;;;;;;;17.40;96.50;;;;;;4346844;33;44097;-76
2021/08/31 10:16:45;;;;;;;;;;;17.40;96.50;;;;;;4346560;33;43431;-76
2021/08/31 10:19:13;;;;;;;;;;;17.40;96.50;;;;;;4346576;33;43445;-77
2021/08/31 10:21:41;;;;;;;;;;;17.40;96.40;;;;;;4345811;33;44026;-76
2021/08/31 10:24:08;;;;;;;;;;;17.40;96.40;;;;;;4346499;33;42479;-76
2021/08/31 10:26:37;;;;;;;;;;;17.40;96.40;;;;;;4346421;33;43546;-77
2021/08/31 10:29:14;;;;;;;;;;;17.40;96.40;;;;;;4346556;33;42970;-76
2021/08/31 10:31:42;;;;;;;;;;;17.40;96.40;;;;;;4345393;33;43854;-76
2021/08/31 10:34:28;;;;;;;;;;;17.40;96.40;;;;;;4346750;33;44022;-77
2021/08/31 10:37:25;;;;;;;;;;;17.40;96.40;;;;;;4346236;33;43533;-76
2021/08/31 10:39:53;;;;;;;;;;;17.40;96.40;;;;;;4345600;33;42844;-76
2021/08/31 10:42:23;;;;;;;;;;;17.40;96.40;;;;;;4346670;33;43529;-77
2021/08/31 10:44:55;;;;;;;;;;;17.40;96.40;;;;;;4345035;33;44070;-77
2021/08/31 10:47:31;;;;;;;;;;;17.40;96.80;;;;;;4346818;33;44265;-77
2021/08/31 10:49:58;;;;;;;;;;;17.50;96.80;;;;;;4346180;33;42887;-76
2021/08/31 10:52:46;;;;;;;;;;;17.50;96.40;;;;;;4346506;33;43918;-77
2021/08/31 10:55:26;;;;;;;;;;;17.50;96.50;;;;;;4344849;33;43245;-78
2021/08/31 10:57:56;;;;;;;;;;;17.50;96.40;;;;;;4346240;33;42688;-78
2021/08/31 11:00:28;;;;;;;;;;;17.50;96.40;;;;;;4346198;33;43774;-76
2021/08/31 11:02:57;;;;;;;;;;;17.50;96.40;;;;;;4344691;33;43146;-76
2021/08/31 11:05:25;;;;;;;;;;;17.50;96.40;;;;;;4345255;33;43031;-77
2021/08/31 11:07:55;;;;;;;;;;;17.50;96.40;;;;;;4345939;33;43485;-76
2021/08/31 11:10:42;;;;;;;;;;;17.50;96.40;;;;;;4345420;33;45353;-76
2021/08/31 11:13:11;;;;;;;;;;;17.50;96.40;;;;;;4346533;33;43137;-76
2021/08/31 11:15:38;;;;;;;;;;;17.50;96.40;;;;;;4344649;33;42601;-76
2021/08/31 11:18:12;;;;;;;;;;;17.50;96.50;;;;;;4345078;33;44049;-76
2021/08/31 11:20:40;;;;;;;;;;;17.50;96.40;;;;;;4345327;33;43312;-76
2021/08/31 11:23:14;;;;;;;;;;;17.60;96.40;;;;;;4344557;33;42271;-76
2021/08/31 11:25:42;;;;;;;;;;;17.50;96.40;;;;;;4346173;33;43184;-76
2021/08/31 11:28:11;;;;;;;;;;;17.50;96.40;;;;;;4346934;33;19998;-76
2021/08/31 11:30:47;;;;;;;;;;;17.60;96.40;;;;;;4345501;33;43452;-76
2021/08/31 11:33:18;;;;;;;;;;;17.60;96.40;;;;;;4345978;33;43867;-76
2021/08/31 11:35:46;;;;;;;;;;;17.60;96.40;;;;;;4344682;33;43025;-76
2021/08/31 11:38:13;;;;;;;;;;;17.60;96.40;;;;;;4344708;33;44979;-77
2021/08/31 11:40:42;;;;;;;;;;;17.60;96.40;;;;;;4344856;33;42221;-76
2021/08/31 11:43:09;;;;;;;;;;;17.60;96.40;;;;;;4344318;33;44274;-77
2021/08/31 11:45:41;;;;;;;;;;;17.60;96.40;;;;;;4345548;33;43932;-76
2021/08/31 11:48:08;;;;;;;;;;;17.60;96.40;;;;;;4345474;33;43557;-76
2021/08/31 11:50:36;;;;;;;;;;;17.60;96.40;;;;;;4345329;33;42317;-76
2021/08/31 11:53:19;;;;;;;;;;;17.60;96.40;;;;;;4345259;33;42897;-76
2021/08/31 11:56:03;;;;;;;;;;;17.60;96.40;;;;;;4344594;33;44223;-76
2021/08/31 11:58:39;;;;;;;;;;;17.60;96.40;;;;;;4346054;33;20012;-76
2021/08/31 12:01:06;;;;;;;;;;;17.60;96.40;;;;;;4345441;33;44602;-76
2021/08/31 12:03:34;;;;;;;;;;;17.70;96.40;;;;;;4344343;33;43174;-76
2021/08/31 12:06:04;;;;;;;;;;;17.70;96.40;;;;;;4344398;33;43330;-77
2021/08/31 12:08:36;;;;;;;;;;;17.70;96.40;;;;;;4343984;33;45173;-76
2021/08/31 12:11:07;;;;;;;;;;;17.70;96.40;;;;;;4344248;33;43777;-76
2021/08/31 12:13:35;;;;;;;;;;;17.70;96.40;;;;;;4345702;33;44207;-75
2021/08/31 12:16:02;;;;;;;;;;;17.70;96.40;;;;;;4345415;33;46112;-76
2021/08/31 12:18:34;;;;;;;;;;;17.70;96.40;;;;;;4344960;33;42856;-76
2021/08/31 12:21:15;;;;;;;;;;;17.70;96.40;;;;;;4345588;33;43194;-76
2021/08/31 12:23:45;;;;;;;;;;;17.70;96.40;;;;;;4345074;33;42728;-76
2021/08/31 12:26:28;;;;;;;;;;;17.80;96.40;;;;;;4345155;33;44165;-76
2021/08/31 12:29:00;;;;;;;;;;;17.80;96.40;;;;;;4345637;33;20016;-76
2021/08/31 12:31:30;;;;;;;;;;;17.90;96.40;;;;;;4345179;33;42916;-76
2021/08/31 12:34:00;;;;;;;;;;;17.90;96.40;;;;;;4344731;33;44207;-76
2021/08/31 12:36:31;;;;;;;;;;;17.90;96.40;;;;;;4345372;33;44782;-76
2021/08/31 12:38:59;;;;;;;;;;;17.90;96.40;;;;;;4345489;33;43079;-75
2021/08/31 12:41:33;;;;;;;;;;;18.00;96.40;;;;;;4343710;33;42842;-76
2021/08/31 12:44:05;;;;;;;;;;;18.00;96.40;;;;;;4345361;33;43815;-76
2021/08/31 12:46:40;;;;;;;;;;;18.00;96.40;;;;;;4344253;33;43815;-76
2021/08/31 12:49:17;;;;;;;;;;;18.00;96.70;;;;;;4345351;33;43761;-76
2021/08/31 12:51:48;;;;;;;;;;;18.00;96.30;;;;;;4345074;33;43291;-76
2021/08/31 12:54:26;;;;;;;;;;;18.00;96.30;;;;;;4344835;33;42896;-76
2021/08/31 12:57:00;;;;;;;;;;;18.00;96.30;;;;;;4344851;33;42731;-75
2021/08/31 12:59:38;;;;;;;;;;;18.00;96.40;;;;;;4345699;33;20033;-76
2021/08/31 13:02:06;;;;;;;;;;;18.00;96.40;;;;;;4344936;33;43171;-76
2021/08/31 13:04:35;;;;;;;;;;;18.10;96.40;;;;;;4345156;33;44841;-76
2021/08/31 13:07:02;;;;;;;;;;;18.10;96.40;;;;;;4343810;33;43083;-76
2021/08/31 13:09:29;;;;;;;;;;;18.10;96.30;;;;;;4344762;33;44252;-76
2021/08/31 13:11:59;;;;;;;;;;;18.20;96.40;;;;;;4344753;33;44191;-76
2021/08/31 13:14:34;;;;;;;;;;;18.10;96.30;;;;;;4343869;33;42724;-76
2021/08/31 13:17:01;;;;;;;;;;;18.20;96.30;;;;;;4344526;33;42915;-76
2021/08/31 13:19:28;;;;;;;;;;;18.20;96.30;;;;;;4344959;33;43025;-76
2021/08/31 13:21:56;;;;;;;;;;;18.20;96.30;;;;;;4344987;33;43194;-76
2021/08/31 13:24:26;;;;;;;;;;;18.20;96.30;;;;;;4343656;33;43540;-77
2021/08/31 13:26:53;;;;;;;;;;;18.20;96.30;;;;;;4344634;33;43945;-76
2021/08/31 13:29:21;;;;;;;;;;;18.20;96.30;;;;;;4344532;33;42712;-76
2021/08/31 13:31:48;;;;;;;;;;;18.20;96.20;;;;;;4344344;33;19998;-76
2021/08/31 13:34:15;;;;;;;;;;;18.20;96.20;;;;;;4343475;33;44192;-75
2021/08/31 13:36:43;;;;;;;;;;;18.20;96.20;;;;;;4344837;33;43575;-76
2021/08/31 13:39:11;;;;;;;;;;;18.20;96.10;;;;;;4344881;33;43939;-76
2021/08/31 13:41:38;;;;;;;;;;;18.20;96.10;;;;;;4344704;33;44171;-75
2021/08/31 13:44:08;;;;;;;;;;;18.30;96.10;;;;;;4343910;33;46074;-76
2021/08/31 13:46:35;;;;;;;;;;;18.30;96.10;;;;;;4346150;33;42844;-76
2021/08/31 13:49:03;;;;;;;;;;;18.30;96.20;;;;;;4345943;33;44575;-76
2021/08/31 13:51:30;;;;;;;;;;;18.30;96.10;;;;;;4347304;33;44275;-76
2021/08/31 13:53:58;;;;;;;;;;;18.30;96.10;;;;;;4347206;33;43328;-76
2021/08/31 13:56:27;;;;;;;;;;;18.30;96.10;;;;;;4347125;33;45756;-76
2021/08/31 13:58:54;;;;;;;;;;;18.30;96.20;;;;;;4347344;33;43963;-78
2021/08/31 14:01:24;;;;;;;;;;;18.40;96.20;;;;;;4346103;33;43325;-76
2021/08/31 14:03:53;;;;;;;;;;;18.40;96.20;;;;;;4347401;33;45626;-76
2021/08/31 14:06:22;;;;;;;;;;;18.40;96.20;;;;;;4346821;33;43090;-76
2021/08/31 14:08:52;;;;;;;;;;;18.40;96.30;;;;;;4346030;33;42868;-76
2021/08/31 14:11:19;;;;;;;;;;;18.50;96.30;;;;;;4346625;32;44084;-75
2021/08/31 14:13:49;;;;;;;;;;;18.50;96.30;;;;;;4346584;33;44842;-76
2021/08/31 14:16:16;;;;;;;;;;;18.50;96.20;;;;;;4347354;33;43317;-77
2021/08/31 14:18:46;;;;;;;;;;;18.50;96.20;;;;;;4346617;33;44198;-76
2021/08/31 14:21:19;;;;;;;;;;;18.60;96.20;;;;;;4346839;33;42393;-76
2021/08/31 14:23:49;;;;;;;;;;;18.60;96.20;;;;;;4345492;33;42995;-76
2021/08/31 14:26:16;;;;;;;;;;;18.60;96.10;;;;;;4346470;33;44195;-76
2021/08/31 14:28:46;;;;;;;;;;;18.60;96.10;;;;;;4345393;33;43708;-76